sensor_id;sensor_type;location;lat;lon;timestamp;P1;durP1;ratioP1;P2;durP2;ratioP2
72676;SDS011;60755;51.374;10.662;2022-09-24T00:01:24;5.33;;;4.90;;
72676;SDS011;60755;51.374;10.662;2022-09-24T00:03:53;5.60;;;5.10;;
72676;SDS011;60755;51.374;10.662;2022-09-24T00:06:21;5.87;;;5.37;;
72676;SDS011;60755;51.374;10.662;2022-09-24T00:08:51;6.07;;;5.53;;
72676;SDS011;60755;51.374;10.662;2022-09-24T00:11:19;5.47;;;5.07;;
72676;SDS011;60755;51.374;10.662;2022-09-24T00:13:49;5.30;;;4.87;;
72676;SDS011;60755;51.374;10.662;2022-09-24T00:16:17;5.87;;;5.17;;
72676;SDS011;60755;51.374;10.662;2022-09-24T00:18:45;5.43;;;4.93;;
72676;SDS011;60755;51.374;10.662;2022-09-24T00:21:13;6.37;;;5.10;;
72676;SDS011;60755;51.374;10.662;2022-09-24T00:23:40;5.23;;;4.87;;
72676;SDS011;60755;51.374;10.662;2022-09-24T00:26:09;6.10;;;5.60;;
72676;SDS011;60755;51.374;10.662;2022-09-24T00:28:54;6.37;;;5.50;;
72676;SDS011;60755;51.374;10.662;2022-09-24T00:31:20;6.43;;;5.23;;
72676;SDS011;60755;51.374;10.662;2022-09-24T00:33:46;5.63;;;4.90;;
72676;SDS011;60755;51.374;10.662;2022-09-24T00:36:16;5.17;;;4.77;;
72676;SDS011;60755;51.374;10.662;2022-09-24T00:38:44;4.77;;;4.47;;
72676;SDS011;60755;51.374;10.662;2022-09-24T00:41:15;5.20;;;4.80;;
72676;SDS011;60755;51.374;10.662;2022-09-24T00:43:44;5.43;;;4.73;;
72676;SDS011;60755;51.374;10.662;2022-09-24T00:46:12;5.40;;;4.93;;
72676;SDS011;60755;51.374;10.662;2022-09-24T00:48:42;5.73;;;5.30;;
72676;SDS011;60755;51.374;10.662;2022-09-24T00:51:09;5.40;;;5.00;;
72676;SDS011;60755;51.374;10.662;2022-09-24T00:53:38;4.97;;;4.67;;
72676;SDS011;60755;51.374;10.662;2022-09-24T00:56:06;5.70;;;5.20;;
72676;SDS011;60755;51.374;10.662;2022-09-24T00:58:40;5.00;;;4.47;;
72676;SDS011;60755;51.374;10.662;2022-09-24T01:01:09;5.77;;;5.27;;
72676;SDS011;60755;51.374;10.662;2022-09-24T01:03:37;4.73;;;4.43;;
72676;SDS011;60755;51.374;10.662;2022-09-24T01:06:06;5.80;;;5.30;;
72676;SDS011;60755;51.374;10.662;2022-09-24T01:08:33;5.70;;;5.20;;
72676;SDS011;60755;51.374;10.662;2022-09-24T01:11:06;5.60;;;5.10;;
72676;SDS011;60755;51.374;10.662;2022-09-24T01:13:51;4.63;;;4.33;;
72676;SDS011;60755;51.374;10.662;2022-09-24T01:16:31;5.37;;;4.87;;
72676;SDS011;60755;51.374;10.662;2022-09-24T01:19:09;5.13;;;4.73;;
72676;SDS011;60755;51.374;10.662;2022-09-24T01:21:53;5.43;;;4.70;;
72676;SDS011;60755;51.374;10.662;2022-09-24T01:24:34;5.47;;;4.90;;
72676;SDS011;60755;51.374;10.662;2022-09-24T01:27:13;5.37;;;4.93;;
72676;SDS011;60755;51.374;10.662;2022-09-24T01:29:47;5.57;;;5.07;;
72676;SDS011;60755;51.374;10.662;2022-09-24T01:32:24;8.53;;;5.53;;
72676;SDS011;60755;51.374;10.662;2022-09-24T01:34:57;6.23;;;5.60;;
72676;SDS011;60755;51.374;10.662;2022-09-24T01:37:27;6.00;;;5.27;;
72676;SDS011;60755;51.374;10.662;2022-09-24T01:39:57;5.80;;;5.30;;
72676;SDS011;60755;51.374;10.662;2022-09-24T01:42:26;5.67;;;5.10;;
72676;SDS011;60755;51.374;10.662;2022-09-24T01:44:57;5.50;;;5.00;;
72676;SDS011;60755;51.374;10.662;2022-09-24T01:47:29;5.50;;;5.00;;
72676;SDS011;60755;51.374;10.662;2022-09-24T01:49:57;5.20;;;4.80;;
72676;SDS011;60755;51.374;10.662;2022-09-24T01:52:24;5.43;;;4.80;;
72676;SDS011;60755;51.374;10.662;2022-09-24T01:54:56;5.57;;;5.07;;
72676;SDS011;60755;51.374;10.662;2022-09-24T01:57:26;5.00;;;4.57;;
72676;SDS011;60755;51.374;10.662;2022-09-24T01:59:59;4.93;;;4.50;;
72676;SDS011;60755;51.374;10.662;2022-09-24T02:02:29;4.97;;;4.30;;
72676;SDS011;60755;51.374;10.662;2022-09-24T02:05:01;5.10;;;4.70;;
72676;SDS011;60755;51.374;10.662;2022-09-24T02:07:33;5.83;;;4.83;;
72676;SDS011;60755;51.374;10.662;2022-09-24T02:10:03;5.20;;;4.73;;
72676;SDS011;60755;51.374;10.662;2022-09-24T02:12:31;4.80;;;4.50;;
72676;SDS011;60755;51.374;10.662;2022-09-24T02:15:05;6.00;;;4.90;;
72676;SDS011;60755;51.374;10.662;2022-09-24T02:17:37;4.50;;;4.20;;
72676;SDS011;60755;51.374;10.662;2022-09-24T02:20:08;4.47;;;4.07;;
72676;SDS011;60755;51.374;10.662;2022-09-24T02:22:38;5.00;;;4.50;;
72676;SDS011;60755;51.374;10.662;2022-09-24T02:25:08;5.20;;;4.80;;
72676;SDS011;60755;51.374;10.662;2022-09-24T02:27:38;5.30;;;4.90;;
72676;SDS011;60755;51.374;10.662;2022-09-24T02:30:07;5.00;;;4.60;;
72676;SDS011;60755;51.374;10.662;2022-09-24T02:32:34;4.60;;;4.30;;
72676;SDS011;60755;51.374;10.662;2022-09-24T02:35:05;4.93;;;4.53;;
72676;SDS011;60755;51.374;10.662;2022-09-24T02:37:34;5.57;;;5.07;;
72676;SDS011;60755;51.374;10.662;2022-09-24T02:40:02;5.57;;;5.07;;
72676;SDS011;60755;51.374;10.662;2022-09-24T02:42:30;5.90;;;5.30;;
72676;SDS011;60755;51.374;10.662;2022-09-24T02:44:57;6.00;;;5.40;;
72676;SDS011;60755;51.374;10.662;2022-09-24T02:47:25;5.93;;;5.20;;
72676;SDS011;60755;51.374;10.662;2022-09-24T02:49:53;6.00;;;5.50;;
72676;SDS011;60755;51.374;10.662;2022-09-24T02:52:20;6.77;;;5.20;;
72676;SDS011;60755;51.374;10.662;2022-09-24T02:54:46;6.30;;;5.80;;
72676;SDS011;60755;51.374;10.662;2022-09-24T02:57:14;5.40;;;5.00;;
72676;SDS011;60755;51.374;10.662;2022-09-24T02:59:40;6.00;;;5.50;;
72676;SDS011;60755;51.374;10.662;2022-09-24T03:02:07;6.10;;;5.60;;
72676;SDS011;60755;51.374;10.662;2022-09-24T03:04:35;5.90;;;5.40;;
72676;SDS011;60755;51.374;10.662;2022-09-24T03:07:03;5.93;;;5.30;;
72676;SDS011;60755;51.374;10.662;2022-09-24T03:09:29;6.10;;;5.43;;
72676;SDS011;60755;51.374;10.662;2022-09-24T03:11:56;6.17;;;5.57;;
72676;SDS011;60755;51.374;10.662;2022-09-24T03:14:25;6.20;;;5.70;;
72676;SDS011;60755;51.374;10.662;2022-09-24T03:16:51;6.03;;;5.53;;
72676;SDS011;60755;51.374;10.662;2022-09-24T03:19:17;5.70;;;5.20;;
72676;SDS011;60755;51.374;10.662;2022-09-24T03:21:45;7.60;;;5.70;;
72676;SDS011;60755;51.374;10.662;2022-09-24T03:24:12;5.73;;;5.23;;
72676;SDS011;60755;51.374;10.662;2022-09-24T03:26:38;5.90;;;5.40;;
72676;SDS011;60755;51.374;10.662;2022-09-24T03:29:05;5.70;;;5.30;;
72676;SDS011;60755;51.374;10.662;2022-09-24T03:31:31;5.80;;;5.30;;
72676;SDS011;60755;51.374;10.662;2022-09-24T03:33:57;5.97;;;5.47;;
72676;SDS011;60755;51.374;10.662;2022-09-24T03:36:24;5.27;;;4.87;;
72676;SDS011;60755;51.374;10.662;2022-09-24T03:38:53;6.07;;;5.57;;
72676;SDS011;60755;51.374;10.662;2022-09-24T03:41:21;5.47;;;4.97;;
72676;SDS011;60755;51.374;10.662;2022-09-24T03:43:48;5.90;;;5.40;;
72676;SDS011;60755;51.374;10.662;2022-09-24T03:46:15;5.87;;;5.37;;
72676;SDS011;60755;51.374;10.662;2022-09-24T03:48:41;5.70;;;5.20;;
72676;SDS011;60755;51.374;10.662;2022-09-24T03:51:09;5.80;;;5.27;;
72676;SDS011;60755;51.374;10.662;2022-09-24T03:53:37;5.77;;;5.00;;
72676;SDS011;60755;51.374;10.662;2022-09-24T03:56:06;5.30;;;4.90;;
72676;SDS011;60755;51.374;10.662;2022-09-24T03:58:34;5.43;;;5.00;;
72676;SDS011;60755;51.374;10.662;2022-09-24T04:01:02;6.57;;;4.60;;
72676;SDS011;60755;51.374;10.662;2022-09-24T04:03:29;5.67;;;5.17;;
72676;SDS011;60755;51.374;10.662;2022-09-24T04:05:56;5.13;;;4.73;;
72676;SDS011;60755;51.374;10.662;2022-09-24T04:08:23;5.23;;;4.83;;
72676;SDS011;60755;51.374;10.662;2022-09-24T04:10:50;5.53;;;5.03;;
72676;SDS011;60755;51.374;10.662;2022-09-24T04:13:18;6.07;;;5.57;;
72676;SDS011;60755;51.374;10.662;2022-09-24T04:15:45;5.10;;;4.70;;
72676;SDS011;60755;51.374;10.662;2022-09-24T04:18:13;4.87;;;4.57;;
72676;SDS011;60755;51.374;10.662;2022-09-24T04:20:39;6.67;;;5.27;;
72676;SDS011;60755;51.374;10.662;2022-09-24T04:23:06;4.90;;;4.50;;
72676;SDS011;60755;51.374;10.662;2022-09-24T04:25:32;6.77;;;5.00;;
72676;SDS011;60755;51.374;10.662;2022-09-24T04:28:00;5.33;;;4.90;;
72676;SDS011;60755;51.374;10.662;2022-09-24T04:30:29;6.00;;;5.10;;
72676;SDS011;60755;51.374;10.662;2022-09-24T04:32:57;6.17;;;5.20;;
72676;SDS011;60755;51.374;10.662;2022-09-24T04:35:25;5.43;;;5.00;;
72676;SDS011;60755;51.374;10.662;2022-09-24T04:37:53;5.60;;;5.10;;
72676;SDS011;60755;51.374;10.662;2022-09-24T04:40:21;6.90;;;4.97;;
72676;SDS011;60755;51.374;10.662;2022-09-24T04:42:47;6.97;;;5.50;;
72676;SDS011;60755;51.374;10.662;2022-09-24T04:45:14;6.20;;;5.60;;
72676;SDS011;60755;51.374;10.662;2022-09-24T04:47:44;5.97;;;5.37;;
72676;SDS011;60755;51.374;10.662;2022-09-24T04:50:16;6.73;;;6.13;;
72676;SDS011;60755;51.374;10.662;2022-09-24T04:52:43;7.43;;;6.80;;
72676;SDS011;60755;51.374;10.662;2022-09-24T04:55:10;7.00;;;5.80;;
72676;SDS011;60755;51.374;10.662;2022-09-24T04:57:36;7.43;;;6.60;;
72676;SDS011;60755;51.374;10.662;2022-09-24T05:00:03;6.60;;;6.10;;
72676;SDS011;60755;51.374;10.662;2022-09-24T05:02:32;7.60;;;6.37;;
72676;SDS011;60755;51.374;10.662;2022-09-24T05:04:59;8.83;;;5.97;;
72676;SDS011;60755;51.374;10.662;2022-09-24T05:07:27;6.20;;;5.70;;
72676;SDS011;60755;51.374;10.662;2022-09-24T05:09:53;6.00;;;5.60;;
72676;SDS011;60755;51.374;10.662;2022-09-24T05:12:20;5.77;;;5.33;;
72676;SDS011;60755;51.374;10.662;2022-09-24T05:14:47;5.63;;;5.07;;
72676;SDS011;60755;51.374;10.662;2022-09-24T05:17:13;5.53;;;4.97;;
72676;SDS011;60755;51.374;10.662;2022-09-24T05:19:39;5.90;;;5.23;;
72676;SDS011;60755;51.374;10.662;2022-09-24T05:22:07;5.50;;;5.10;;
72676;SDS011;60755;51.374;10.662;2022-09-24T05:24:34;5.80;;;5.30;;
72676;SDS011;60755;51.374;10.662;2022-09-24T05:27:01;6.07;;;5.57;;
72676;SDS011;60755;51.374;10.662;2022-09-24T05:29:36;7.40;;;6.73;;
72676;SDS011;60755;51.374;10.662;2022-09-24T05:32:04;9.20;;;6.07;;
72676;SDS011;60755;51.374;10.662;2022-09-24T05:34:32;6.37;;;5.83;;
72676;SDS011;60755;51.374;10.662;2022-09-24T05:36:58;6.27;;;5.67;;
72676;SDS011;60755;51.374;10.662;2022-09-24T05:39:26;6.50;;;6.00;;
72676;SDS011;60755;51.374;10.662;2022-09-24T05:41:53;5.00;;;4.60;;
72676;SDS011;60755;51.374;10.662;2022-09-24T05:44:20;6.57;;;5.10;;
72676;SDS011;60755;51.374;10.662;2022-09-24T05:46:46;7.13;;;5.77;;
72676;SDS011;60755;51.374;10.662;2022-09-24T05:49:13;5.23;;;4.83;;
72676;SDS011;60755;51.374;10.662;2022-09-24T05:51:39;5.50;;;4.97;;
72676;SDS011;60755;51.374;10.662;2022-09-24T05:54:06;5.30;;;4.90;;
72676;SDS011;60755;51.374;10.662;2022-09-24T05:56:34;5.20;;;4.80;;
72676;SDS011;60755;51.374;10.662;2022-09-24T05:59:01;7.33;;;5.03;;
72676;SDS011;60755;51.374;10.662;2022-09-24T06:01:27;6.40;;;5.03;;
72676;SDS011;60755;51.374;10.662;2022-09-24T06:03:54;5.63;;;4.80;;
72676;SDS011;60755;51.374;10.662;2022-09-24T06:06:21;5.40;;;5.00;;
72676;SDS011;60755;51.374;10.662;2022-09-24T06:08:47;5.47;;;5.07;;
72676;SDS011;60755;51.374;10.662;2022-09-24T06:11:14;5.23;;;4.93;;
72676;SDS011;60755;51.374;10.662;2022-09-24T06:13:41;5.83;;;5.00;;
72676;SDS011;60755;51.374;10.662;2022-09-24T06:16:09;5.90;;;5.40;;
72676;SDS011;60755;51.374;10.662;2022-09-24T06:18:37;7.23;;;6.30;;
72676;SDS011;60755;51.374;10.662;2022-09-24T06:21:05;6.27;;;5.67;;
72676;SDS011;60755;51.374;10.662;2022-09-24T06:23:33;5.97;;;5.50;;
72676;SDS011;60755;51.374;10.662;2022-09-24T06:26:01;8.67;;;5.93;;
72676;SDS011;60755;51.374;10.662;2022-09-24T06:28:27;6.70;;;5.10;;
72676;SDS011;60755;51.374;10.662;2022-09-24T06:30:57;5.67;;;5.27;;
72676;SDS011;60755;51.374;10.662;2022-09-24T06:33:24;7.57;;;5.17;;
72676;SDS011;60755;51.374;10.662;2022-09-24T06:35:51;6.00;;;5.40;;
72676;SDS011;60755;51.374;10.662;2022-09-24T06:38:17;5.90;;;5.40;;
72676;SDS011;60755;51.374;10.662;2022-09-24T06:40:44;5.80;;;5.30;;
72676;SDS011;60755;51.374;10.662;2022-09-24T06:43:12;7.40;;;6.33;;
72676;SDS011;60755;51.374;10.662;2022-09-24T06:45:41;8.33;;;7.03;;
72676;SDS011;60755;51.374;10.662;2022-09-24T06:48:10;9.43;;;6.93;;
72676;SDS011;60755;51.374;10.662;2022-09-24T06:50:38;10.57;;;8.40;;
72676;SDS011;60755;51.374;10.662;2022-09-24T06:53:06;9.07;;;8.03;;
72676;SDS011;60755;51.374;10.662;2022-09-24T06:55:35;9.60;;;8.57;;
72676;SDS011;60755;51.374;10.662;2022-09-24T06:58:03;11.50;;;10.30;;
72676;SDS011;60755;51.374;10.662;2022-09-24T07:00:30;11.17;;;9.10;;
72676;SDS011;60755;51.374;10.662;2022-09-24T07:02:57;9.60;;;7.30;;
72676;SDS011;60755;51.374;10.662;2022-09-24T07:05:25;8.10;;;7.27;;
72676;SDS011;60755;51.374;10.662;2022-09-24T07:07:51;9.10;;;7.57;;
72676;SDS011;60755;51.374;10.662;2022-09-24T07:10:18;9.27;;;7.53;;
72676;SDS011;60755;51.374;10.662;2022-09-24T07:12:44;11.07;;;7.80;;
72676;SDS011;60755;51.374;10.662;2022-09-24T07:15:11;8.80;;;7.90;;
72676;SDS011;60755;51.374;10.662;2022-09-24T07:17:37;8.13;;;7.33;;
72676;SDS011;60755;51.374;10.662;2022-09-24T07:20:04;8.47;;;7.60;;
72676;SDS011;60755;51.374;10.662;2022-09-24T07:22:35;8.53;;;7.60;;
72676;SDS011;60755;51.374;10.662;2022-09-24T07:25:04;8.73;;;7.83;;
72676;SDS011;60755;51.374;10.662;2022-09-24T07:27:31;20.30;;;14.33;;
72676;SDS011;60755;51.374;10.662;2022-09-24T07:29:58;17.77;;;14.43;;
72676;SDS011;60755;51.374;10.662;2022-09-24T07:32:24;20.83;;;15.90;;
72676;SDS011;60755;51.374;10.662;2022-09-24T07:34:51;13.13;;;11.83;;
72676;SDS011;60755;51.374;10.662;2022-09-24T07:37:19;7.30;;;6.70;;
72676;SDS011;60755;51.374;10.662;2022-09-24T07:39:46;8.33;;;7.53;;
72676;SDS011;60755;51.374;10.662;2022-09-24T07:42:13;8.60;;;7.80;;
72676;SDS011;60755;51.374;10.662;2022-09-24T07:44:39;9.60;;;7.70;;
72676;SDS011;60755;51.374;10.662;2022-09-24T07:47:05;10.13;;;9.13;;
72676;SDS011;60755;51.374;10.662;2022-09-24T07:49:32;9.20;;;8.40;;
72676;SDS011;60755;51.374;10.662;2022-09-24T07:51:58;8.47;;;7.83;;
72676;SDS011;60755;51.374;10.662;2022-09-24T07:54:25;16.93;;;12.13;;
72676;SDS011;60755;51.374;10.662;2022-09-24T07:56:53;31.83;;;18.83;;
72676;SDS011;60755;51.374;10.662;2022-09-24T07:59:19;167.60;;;72.77;;
72676;SDS011;60755;51.374;10.662;2022-09-24T08:01:46;73.65;;;35.70;;
72676;SDS011;60755;51.374;10.662;2022-09-24T08:04:12;63.67;;;31.80;;
72676;SDS011;60755;51.374;10.662;2022-09-24T08:06:38;56.03;;;32.83;;
72676;SDS011;60755;51.374;10.662;2022-09-24T08:09:05;19.27;;;11.33;;
72676;SDS011;60755;51.374;10.662;2022-09-24T08:11:32;9.60;;;6.83;;
72676;SDS011;60755;51.374;10.662;2022-09-24T08:13:59;8.10;;;6.20;;
72676;SDS011;60755;51.374;10.662;2022-09-24T08:16:26;6.33;;;5.70;;
72676;SDS011;60755;51.374;10.662;2022-09-24T08:18:53;7.47;;;5.57;;
72676;SDS011;60755;51.374;10.662;2022-09-24T08:21:19;5.63;;;5.10;;
72676;SDS011;60755;51.374;10.662;2022-09-24T08:23:46;7.38;;;5.53;;
72676;SDS011;60755;51.374;10.662;2022-09-24T08:26:12;7.10;;;5.60;;
72676;SDS011;60755;51.374;10.662;2022-09-24T08:28:39;6.25;;;5.70;;
72676;SDS011;60755;51.374;10.662;2022-09-24T08:31:09;5.82;;;5.43;;
72676;SDS011;60755;51.374;10.662;2022-09-24T08:33:38;4.93;;;4.53;;
72676;SDS011;60755;51.374;10.662;2022-09-24T08:36:05;5.15;;;4.68;;
72676;SDS011;60755;51.374;10.662;2022-09-24T08:38:33;4.65;;;4.35;;
72676;SDS011;60755;51.374;10.662;2022-09-24T08:41:01;6.22;;;4.82;;
72676;SDS011;60755;51.374;10.662;2022-09-24T08:43:39;5.27;;;4.80;;
72676;SDS011;60755;51.374;10.662;2022-09-24T08:46:15;8.18;;;5.30;;
72676;SDS011;60755;51.374;10.662;2022-09-24T08:49:02;8.73;;;5.20;;
72676;SDS011;60755;51.374;10.662;2022-09-24T08:51:32;5.40;;;4.90;;
72676;SDS011;60755;51.374;10.662;2022-09-24T08:54:05;5.78;;;5.22;;
72676;SDS011;60755;51.374;10.662;2022-09-24T08:56:36;5.80;;;4.82;;
72676;SDS011;60755;51.374;10.662;2022-09-24T08:59:09;5.93;;;5.38;;
72676;SDS011;60755;51.374;10.662;2022-09-24T09:01:51;7.63;;;5.88;;
72676;SDS011;60755;51.374;10.662;2022-09-24T09:04:23;7.57;;;5.72;;
72676;SDS011;60755;51.374;10.662;2022-09-24T09:06:56;10.60;;;9.60;;
72676;SDS011;60755;51.374;10.662;2022-09-24T09:09:32;5.93;;;5.53;;
72676;SDS011;60755;51.374;10.662;2022-09-24T09:12:09;5.15;;;4.75;;
72676;SDS011;60755;51.374;10.662;2022-09-24T09:14:39;4.90;;;4.60;;
72676;SDS011;60755;51.374;10.662;2022-09-24T09:17:22;5.22;;;4.72;;
72676;SDS011;60755;51.374;10.662;2022-09-24T09:19:56;6.35;;;5.80;;
72676;SDS011;60755;51.374;10.662;2022-09-24T09:22:27;7.82;;;5.65;;
72676;SDS011;60755;51.374;10.662;2022-09-24T09:24:57;6.30;;;5.57;;
72676;SDS011;60755;51.374;10.662;2022-09-24T09:27:28;6.13;;;5.63;;
72676;SDS011;60755;51.374;10.662;2022-09-24T09:29:56;6.78;;;5.70;;
72676;SDS011;60755;51.374;10.662;2022-09-24T09:32:30;6.43;;;5.82;;
72676;SDS011;60755;51.374;10.662;2022-09-24T09:35:06;6.47;;;5.88;;
72676;SDS011;60755;51.374;10.662;2022-09-24T09:37:41;6.25;;;5.75;;
72676;SDS011;60755;51.374;10.662;2022-09-24T09:40:17;6.75;;;6.13;;
72676;SDS011;60755;51.374;10.662;2022-09-24T09:42:57;6.60;;;6.10;;
72676;SDS011;60755;51.374;10.662;2022-09-24T09:45:28;6.43;;;5.93;;
72676;SDS011;60755;51.374;10.662;2022-09-24T09:48:00;6.40;;;5.68;;
72676;SDS011;60755;51.374;10.662;2022-09-24T09:50:28;15.20;;;8.95;;
72676;SDS011;60755;51.374;10.662;2022-09-24T09:53:00;42.72;;;19.50;;
72676;SDS011;60755;51.374;10.662;2022-09-24T09:55:29;7.15;;;6.53;;
72676;SDS011;60755;51.374;10.662;2022-09-24T09:58:00;9.02;;;6.40;;
72676;SDS011;60755;51.374;10.662;2022-09-24T10:00:35;10.02;;;7.53;;
72676;SDS011;60755;51.374;10.662;2022-09-24T10:03:04;15.80;;;9.00;;
72676;SDS011;60755;51.374;10.662;2022-09-24T10:05:31;12.80;;;7.80;;
72676;SDS011;60755;51.374;10.662;2022-09-24T10:07:58;42.45;;;18.27;;
72676;SDS011;60755;51.374;10.662;2022-09-24T10:10:25;13.98;;;7.90;;
72676;SDS011;60755;51.374;10.662;2022-09-24T10:12:53;12.70;;;8.68;;
72676;SDS011;60755;51.374;10.662;2022-09-24T10:15:21;8.90;;;5.63;;
72676;SDS011;60755;51.374;10.662;2022-09-24T10:17:49;5.57;;;5.18;;
72676;SDS011;60755;51.374;10.662;2022-09-24T10:20:21;7.93;;;7.05;;
72676;SDS011;60755;51.374;10.662;2022-09-24T10:22:51;7.53;;;5.68;;
72676;SDS011;60755;51.374;10.662;2022-09-24T10:25:21;8.00;;;5.07;;
72676;SDS011;60755;51.374;10.662;2022-09-24T10:27:50;5.72;;;5.32;;
72676;SDS011;60755;51.374;10.662;2022-09-24T10:30:19;6.03;;;5.32;;
72676;SDS011;60755;51.374;10.662;2022-09-24T10:32:57;5.85;;;5.35;;
72676;SDS011;60755;51.374;10.662;2022-09-24T10:35:27;5.60;;;5.13;;
72676;SDS011;60755;51.374;10.662;2022-09-24T10:37:55;14.38;;;6.18;;
72676;SDS011;60755;51.374;10.662;2022-09-24T10:40:23;5.88;;;5.38;;
72676;SDS011;60755;51.374;10.662;2022-09-24T10:42:54;7.25;;;5.53;;
72676;SDS011;60755;51.374;10.662;2022-09-24T10:45:21;7.63;;;5.40;;
72676;SDS011;60755;51.374;10.662;2022-09-24T10:47:56;6.18;;;5.68;;
72676;SDS011;60755;51.374;10.662;2022-09-24T10:50:35;7.45;;;5.43;;
72676;SDS011;60755;51.374;10.662;2022-09-24T10:53:11;6.30;;;5.22;;
72676;SDS011;60755;51.374;10.662;2022-09-24T10:55:40;6.07;;;5.53;;
72676;SDS011;60755;51.374;10.662;2022-09-24T10:58:30;9.43;;;6.60;;
72676;SDS011;60755;51.374;10.662;2022-09-24T11:01:13;6.68;;;5.90;;
72676;SDS011;60755;51.374;10.662;2022-09-24T11:03:50;7.13;;;5.10;;
72676;SDS011;60755;51.374;10.662;2022-09-24T11:06:37;5.68;;;5.10;;
72676;SDS011;60755;51.374;10.662;2022-09-24T11:09:17;5.45;;;5.05;;
72676;SDS011;60755;51.374;10.662;2022-09-24T11:11:54;7.82;;;7.03;;
72676;SDS011;60755;51.374;10.662;2022-09-24T11:14:42;7.18;;;5.25;;
72676;SDS011;60755;51.374;10.662;2022-09-24T11:17:24;6.32;;;5.28;;
72676;SDS011;60755;51.374;10.662;2022-09-24T11:20:02;9.80;;;5.00;;
72676;SDS011;60755;51.374;10.662;2022-09-24T11:22:41;5.15;;;4.75;;
72676;SDS011;60755;51.374;10.662;2022-09-24T11:25:25;4.63;;;4.38;;
72676;SDS011;60755;51.374;10.662;2022-09-24T11:28:03;5.32;;;4.93;;
72676;SDS011;60755;51.374;10.662;2022-09-24T11:30:43;5.03;;;4.70;;
72676;SDS011;60755;51.374;10.662;2022-09-24T11:33:24;5.80;;;5.35;;
72676;SDS011;60755;51.374;10.662;2022-09-24T11:36:03;5.82;;;5.22;;
72676;SDS011;60755;51.374;10.662;2022-09-24T11:38:47;5.53;;;4.88;;
72676;SDS011;60755;51.374;10.662;2022-09-24T11:41:32;5.85;;;5.05;;
72676;SDS011;60755;51.374;10.662;2022-09-24T11:44:17;6.53;;;6.03;;
72676;SDS011;60755;51.374;10.662;2022-09-24T11:47:09;7.20;;;5.53;;
72676;SDS011;60755;51.374;10.662;2022-09-24T11:50:03;5.75;;;5.10;;
72676;SDS011;60755;51.374;10.662;2022-09-24T11:52:46;7.60;;;6.28;;
72676;SDS011;60755;51.374;10.662;2022-09-24T11:55:20;5.90;;;5.40;;
72676;SDS011;60755;51.374;10.662;2022-09-24T11:57:51;6.50;;;5.90;;
72676;SDS011;60755;51.374;10.662;2022-09-24T12:00:26;5.90;;;5.40;;
72676;SDS011;60755;51.374;10.662;2022-09-24T12:03:00;6.22;;;5.75;;
72676;SDS011;60755;51.374;10.662;2022-09-24T12:05:32;5.43;;;5.05;;
72676;SDS011;60755;51.374;10.662;2022-09-24T12:08:03;5.80;;;5.30;;
72676;SDS011;60755;51.374;10.662;2022-09-24T12:10:41;5.80;;;4.72;;
72676;SDS011;60755;51.374;10.662;2022-09-24T12:13:11;5.10;;;4.60;;
72676;SDS011;60755;51.374;10.662;2022-09-24T12:15:45;5.30;;;4.80;;
72676;SDS011;60755;51.374;10.662;2022-09-24T12:18:17;5.47;;;4.97;;
72676;SDS011;60755;51.374;10.662;2022-09-24T12:20:49;4.88;;;4.50;;
72676;SDS011;60755;51.374;10.662;2022-09-24T12:23:21;4.65;;;4.25;;
72676;SDS011;60755;51.374;10.662;2022-09-24T12:25:53;4.60;;;4.30;;
72676;SDS011;60755;51.374;10.662;2022-09-24T12:28:22;4.50;;;4.30;;
72676;SDS011;60755;51.374;10.662;2022-09-24T12:31:09;4.55;;;4.07;;
72676;SDS011;60755;51.374;10.662;2022-09-24T12:33:59;4.13;;;3.80;;
72676;SDS011;60755;51.374;10.662;2022-09-24T12:36:36;4.82;;;3.95;;
72676;SDS011;60755;51.374;10.662;2022-09-24T12:39:18;4.53;;;4.18;;
72676;SDS011;60755;51.374;10.662;2022-09-24T12:41:49;4.03;;;3.65;;
72676;SDS011;60755;51.374;10.662;2022-09-24T12:44:24;4.60;;;3.80;;
72676;SDS011;60755;51.374;10.662;2022-09-24T12:46:56;4.35;;;4.03;;
72676;SDS011;60755;51.374;10.662;2022-09-24T12:49:27;4.18;;;3.88;;
72676;SDS011;60755;51.374;10.662;2022-09-24T12:51:57;4.28;;;3.88;;
72676;SDS011;60755;51.374;10.662;2022-09-24T12:54:27;3.78;;;3.58;;
72676;SDS011;60755;51.374;10.662;2022-09-24T12:57:10;3.50;;;3.40;;
72676;SDS011;60755;51.374;10.662;2022-09-24T12:59:47;4.55;;;3.25;;
72676;SDS011;60755;51.374;10.662;2022-09-24T13:02:17;3.60;;;3.40;;
72676;SDS011;60755;51.374;10.662;2022-09-24T13:04:49;4.10;;;3.85;;
72676;SDS011;60755;51.374;10.662;2022-09-24T13:07:29;5.85;;;3.70;;
72676;SDS011;60755;51.374;10.662;2022-09-24T13:10:08;3.65;;;3.50;;
72676;SDS011;60755;51.374;10.662;2022-09-24T13:12:38;3.47;;;3.28;;
72676;SDS011;60755;51.374;10.662;2022-09-24T13:15:05;3.47;;;3.13;;
72676;SDS011;60755;51.374;10.662;2022-09-24T13:17:58;3.80;;;3.60;;
72676;SDS011;60755;51.374;10.662;2022-09-24T13:20:26;4.05;;;3.28;;
72676;SDS011;60755;51.374;10.662;2022-09-24T13:22:54;3.70;;;3.50;;
72676;SDS011;60755;51.374;10.662;2022-09-24T13:25:22;3.40;;;3.20;;
72676;SDS011;60755;51.374;10.662;2022-09-24T13:28:01;3.60;;;3.30;;
72676;SDS011;60755;51.374;10.662;2022-09-24T13:30:43;4.38;;;4.05;;
72676;SDS011;60755;51.374;10.662;2022-09-24T13:33:17;4.72;;;4.00;;
72676;SDS011;60755;51.374;10.662;2022-09-24T13:35:54;4.00;;;3.70;;
72676;SDS011;60755;51.374;10.662;2022-09-24T13:38:28;4.35;;;3.95;;
72676;SDS011;60755;51.374;10.662;2022-09-24T13:40:58;8.30;;;4.63;;
72676;SDS011;60755;51.374;10.662;2022-09-24T13:43:37;4.60;;;4.22;;
72676;SDS011;60755;51.374;10.662;2022-09-24T13:46:10;8.02;;;4.60;;
72676;SDS011;60755;51.374;10.662;2022-09-24T13:48:41;4.90;;;4.40;;
72676;SDS011;60755;51.374;10.662;2022-09-24T13:51:12;5.63;;;4.72;;
72676;SDS011;60755;51.374;10.662;2022-09-24T13:53:43;4.70;;;4.25;;
72676;SDS011;60755;51.374;10.662;2022-09-24T13:56:14;4.47;;;4.18;;
72676;SDS011;60755;51.374;10.662;2022-09-24T13:58:44;4.93;;;4.15;;
72676;SDS011;60755;51.374;10.662;2022-09-24T14:01:16;4.95;;;4.25;;
72676;SDS011;60755;51.374;10.662;2022-09-24T14:03:51;5.60;;;4.35;;
72676;SDS011;60755;51.374;10.662;2022-09-24T14:06:21;7.18;;;5.10;;
72676;SDS011;60755;51.374;10.662;2022-09-24T14:08:58;5.45;;;4.95;;
72676;SDS011;60755;51.374;10.662;2022-09-24T14:11:26;7.95;;;5.07;;
72676;SDS011;60755;51.374;10.662;2022-09-24T14:13:53;5.93;;;5.32;;
72676;SDS011;60755;51.374;10.662;2022-09-24T14:16:21;5.85;;;5.35;;
72676;SDS011;60755;51.374;10.662;2022-09-24T14:18:59;7.22;;;6.15;;
72676;SDS011;60755;51.374;10.662;2022-09-24T14:21:26;6.47;;;5.88;;
72676;SDS011;60755;51.374;10.662;2022-09-24T14:24:00;7.13;;;5.78;;
72676;SDS011;60755;51.374;10.662;2022-09-24T14:26:30;5.38;;;4.88;;
72676;SDS011;60755;51.374;10.662;2022-09-24T14:29:02;6.18;;;5.40;;
72676;SDS011;60755;51.374;10.662;2022-09-24T14:31:31;6.45;;;5.38;;
72676;SDS011;60755;51.374;10.662;2022-09-24T14:33:58;6.00;;;5.40;;
72676;SDS011;60755;51.374;10.662;2022-09-24T14:36:27;6.43;;;5.88;;
72676;SDS011;60755;51.374;10.662;2022-09-24T14:38:55;6.82;;;6.20;;
72676;SDS011;60755;51.374;10.662;2022-09-24T14:41:27;10.05;;;6.80;;
72676;SDS011;60755;51.374;10.662;2022-09-24T14:43:56;7.85;;;6.35;;
72676;SDS011;60755;51.374;10.662;2022-09-24T14:46:28;8.57;;;6.28;;
72676;SDS011;60755;51.374;10.662;2022-09-24T14:49:04;6.85;;;6.22;;
72676;SDS011;60755;51.374;10.662;2022-09-24T14:51:48;9.57;;;6.75;;
72676;SDS011;60755;51.374;10.662;2022-09-24T14:54:20;9.15;;;7.05;;